Ngurah Rai (Bali) International Airport
WADD : now visible

Airfield :











YOU CAN JOIN US ON...

 
LOGIN :

Register | Disclaimer

   EN    FR    IT 

 









Legend :    VFR   Marginal VFR   IFR   Intensive IFR   Very Intensive IFR
Visi :
Ceiling :
>= 8 km
>= 3000ft
5 to 8 km
1000 to 3000 ft
1500m to 5 km
500 to 1000 ft
800 to 1500m
200 to 500 ft
< 800m
< 200 ft
Symbols :   Thunderstorms  Fog  Heavy snow  Heavy precipitations  Wind > 20 kt






- Airport Elevation : 14 ft
- IATA code : DPS


WADD - Ngurah Rai (Bali) International

CURRENT METAR :
  • 250000Z 07005KT 9999 FEW017 26/23 Q1011 NOSIG

EXPIRED METARs :
  • 242330Z 06006KT 9999 FEW017 25/23 Q1011 NOSIG
  • 242300Z 07004KT 9999 FEW017 23/22 Q1010 NOSIG
  • 242230Z 03003KT 9999 FEW017 23/22 Q1010 NOSIG
  • 242200Z 03004KT 9999 FEW017 23/22 Q1010 NOSIG
  • 242130Z 05004KT 9999 FEW017 24/22 Q1010 NOSIG
  • 242100Z VRB02KT 9999 FEW017 23/22 Q1010 NOSIG
  • 242030Z 05002KT 9999 FEW017 24/23 Q1010 NOSIG
  • 242000Z 11003KT 9999 FEW017 25/23 Q1010 NOSIG
  • 241930Z 10005KT 9999 FEW017 25/23 Q1010 NOSIG

TAF TAF WADD
Valid from the 25 at 00:00 until the 26 at 00:00 UTC


242300Z 2500/2600 12010KT 9999 SCT016
WAAF FIR / Asia



MET'MAP, your aeronautical weather chart ! - Copyright ORBIFLY December 2007 - Disclaimer

ORBIFLY MET'MAP TEAM :

Programming & Development : Alexandra Zaïnal
Original concept : Baudouin d'Aumeries
Technical & hardware support : Manuel Goepfert
Assistance : Marc-Olivier Méhu




SOURCES & CREDITS :

   NOAA       Earth
Advisory